sensor_id;sensor_type;location;lat;lon;timestamp;pressure;altitude;pressure_sealevel;temperature
34023;BMP280;20673;48.980;8.138;2023-09-07T00:00:11;100312.96;;;17.63
34023;BMP280;20673;48.980;8.138;2023-09-07T00:02:37;100318.37;;;17.67
34023;BMP280;20673;48.980;8.138;2023-09-07T00:05:06;100316.61;;;17.74
34023;BMP280;20673;48.980;8.138;2023-09-07T00:07:33;100316.83;;;17.77
34023;BMP280;20673;48.980;8.138;2023-09-07T00:09:59;100319.59;;;17.86
34023;BMP280;20673;48.980;8.138;2023-09-07T00:12:26;100315.58;;;17.88
34023;BMP280;20673;48.980;8.138;2023-09-07T00:14:54;100314.39;;;17.89
34023;BMP280;20673;48.980;8.138;2023-09-07T00:17:21;100315.70;;;17.85
34023;BMP280;20673;48.980;8.138;2023-09-07T00:19:47;100318.13;;;17.86
34023;BMP280;20673;48.980;8.138;2023-09-07T00:22:18;100315.92;;;17.85
34023;BMP280;20673;48.980;8.138;2023-09-07T00:24:45;100316.73;;;17.81
34023;BMP280;20673;48.980;8.138;2023-09-07T00:27:11;100312.84;;;17.80
34023;BMP280;20673;48.980;8.138;2023-09-07T00:29:38;100307.43;;;17.75
34023;BMP280;20673;48.980;8.138;2023-09-07T00:32:05;100308.39;;;17.73
34023;BMP280;20673;48.980;8.138;2023-09-07T00:34:31;100306.90;;;17.70
34023;BMP280;20673;48.980;8.138;2023-09-07T00:36:58;100307.61;;;17.67
34023;BMP280;20673;48.980;8.138;2023-09-07T00:39:24;100308.93;;;17.67
34023;BMP280;20673;48.980;8.138;2023-09-07T00:41:50;100308.97;;;17.63
34023;BMP280;20673;48.980;8.138;2023-09-07T00:44:16;100302.63;;;17.62
34023;BMP280;20673;48.980;8.138;2023-09-07T00:46:43;100304.86;;;17.56
34023;BMP280;20673;48.980;8.138;2023-09-07T00:49:13;100310.23;;;17.56
34023;BMP280;20673;48.980;8.138;2023-09-07T00:51:40;100303.15;;;17.47
34023;BMP280;20673;48.980;8.138;2023-09-07T00:54:06;100301.31;;;17.39
34023;BMP280;20673;48.980;8.138;2023-09-07T00:56:33;100292.75;;;17.34
34023;BMP280;20673;48.980;8.138;2023-09-07T00:58:59;100295.06;;;17.28
34023;BMP280;20673;48.980;8.138;2023-09-07T01:01:26;100297.55;;;17.26
34023;BMP280;20673;48.980;8.138;2023-09-07T01:03:53;100299.87;;;17.18
34023;BMP280;20673;48.980;8.138;2023-09-07T01:06:40;100300.27;;;17.15
34023;BMP280;20673;48.980;8.138;2023-09-07T01:09:11;100299.59;;;17.12
34023;BMP280;20673;48.980;8.138;2023-09-07T01:11:40;100301.46;;;17.10
34023;BMP280;20673;48.980;8.138;2023-09-07T01:14:06;100298.91;;;17.09
34023;BMP280;20673;48.980;8.138;2023-09-07T01:16:33;100299.65;;;17.05
34023;BMP280;20673;48.980;8.138;2023-09-07T01:19:01;100297.28;;;17.01
34023;BMP280;20673;48.980;8.138;2023-09-07T01:21:36;100293.19;;;16.98
34023;BMP280;20673;48.980;8.138;2023-09-07T01:24:06;100294.88;;;16.93
34023;BMP280;20673;48.980;8.138;2023-09-07T01:26:34;100297.28;;;16.88
34023;BMP280;20673;48.980;8.138;2023-09-07T01:29:01;100292.41;;;16.83
34023;BMP280;20673;48.980;8.138;2023-09-07T01:31:27;100292.40;;;16.81
34023;BMP280;20673;48.980;8.138;2023-09-07T01:33:54;100293.18;;;16.77
34023;BMP280;20673;48.980;8.138;2023-09-07T01:36:20;100297.17;;;16.82
34023;BMP280;20673;48.980;8.138;2023-09-07T01:38:46;100293.00;;;16.70
34023;BMP280;20673;48.980;8.138;2023-09-07T01:41:12;100295.61;;;16.63
34023;BMP280;20673;48.980;8.138;2023-09-07T01:43:38;100294.36;;;16.53
34023;BMP280;20673;48.980;8.138;2023-09-07T01:46:04;100296.26;;;16.43
34023;BMP280;20673;48.980;8.138;2023-09-07T01:48:30;100292.11;;;16.39
34023;BMP280;20673;48.980;8.138;2023-09-07T01:50:57;100296.34;;;16.28
34023;BMP280;20673;48.980;8.138;2023-09-07T01:53:23;100296.56;;;16.20
34023;BMP280;20673;48.980;8.138;2023-09-07T01:55:49;100295.67;;;16.10
34023;BMP280;20673;48.980;8.138;2023-09-07T01:58:15;100295.42;;;16.03
34023;BMP280;20673;48.980;8.138;2023-09-07T02:00:41;100296.28;;;16.05
34023;BMP280;20673;48.980;8.138;2023-09-07T02:03:07;100294.56;;;15.93
34023;BMP280;20673;48.980;8.138;2023-09-07T02:05:33;100289.62;;;15.84
34023;BMP280;20673;48.980;8.138;2023-09-07T02:07:59;100294.67;;;15.80
34023;BMP280;20673;48.980;8.138;2023-09-07T02:10:26;100290.39;;;15.71
34023;BMP280;20673;48.980;8.138;2023-09-07T02:12:52;100291.32;;;15.70
34023;BMP280;20673;48.980;8.138;2023-09-07T02:15:18;100289.90;;;15.68
34023;BMP280;20673;48.980;8.138;2023-09-07T02:17:44;100286.00;;;15.60
34023;BMP280;20673;48.980;8.138;2023-09-07T02:20:11;100292.86;;;15.54
34023;BMP280;20673;48.980;8.138;2023-09-07T02:22:38;100289.75;;;15.45
34023;BMP280;20673;48.980;8.138;2023-09-07T02:25:05;100287.31;;;15.36
34023;BMP280;20673;48.980;8.138;2023-09-07T02:27:36;100288.84;;;15.29
34023;BMP280;20673;48.980;8.138;2023-09-07T02:30:03;100297.76;;;15.23
34023;BMP280;20673;48.980;8.138;2023-09-07T02:32:31;100296.65;;;15.22
34023;BMP280;20673;48.980;8.138;2023-09-07T02:34:57;100297.61;;;15.19
34023;BMP280;20673;48.980;8.138;2023-09-07T02:37:24;100299.34;;;15.17
34023;BMP280;20673;48.980;8.138;2023-09-07T02:39:50;100300.32;;;15.10
34023;BMP280;20673;48.980;8.138;2023-09-07T02:42:16;100297.14;;;15.06
34023;BMP280;20673;48.980;8.138;2023-09-07T02:44:42;100298.25;;;14.99
34023;BMP280;20673;48.980;8.138;2023-09-07T02:47:09;100298.93;;;14.90
34023;BMP280;20673;48.980;8.138;2023-09-07T02:49:35;100297.43;;;14.84
34023;BMP280;20673;48.980;8.138;2023-09-07T02:52:01;100300.87;;;14.78
34023;BMP280;20673;48.980;8.138;2023-09-07T02:54:27;100298.07;;;14.75
34023;BMP280;20673;48.980;8.138;2023-09-07T02:56:53;100295.15;;;14.74
34023;BMP280;20673;48.980;8.138;2023-09-07T02:59:19;100299.08;;;14.66
34023;BMP280;20673;48.980;8.138;2023-09-07T03:01:45;100301.42;;;14.58
34023;BMP280;20673;48.980;8.138;2023-09-07T03:04:11;100301.76;;;14.57
34023;BMP280;20673;48.980;8.138;2023-09-07T03:06:37;100298.20;;;14.55
34023;BMP280;20673;48.980;8.138;2023-09-07T03:09:03;100301.88;;;14.50
34023;BMP280;20673;48.980;8.138;2023-09-07T03:11:31;100297.48;;;14.46
34023;BMP280;20673;48.980;8.138;2023-09-07T03:13:59;100304.25;;;14.37
34023;BMP280;20673;48.980;8.138;2023-09-07T03:16:25;100300.56;;;14.30
34023;BMP280;20673;48.980;8.138;2023-09-07T03:18:52;100301.03;;;14.30
34023;BMP280;20673;48.980;8.138;2023-09-07T03:21:18;100289.57;;;14.25
34023;BMP280;20673;48.980;8.138;2023-09-07T03:23:44;100296.25;;;14.18
34023;BMP280;20673;48.980;8.138;2023-09-07T03:26:10;100295.11;;;14.19
34023;BMP280;20673;48.980;8.138;2023-09-07T03:28:36;100296.31;;;14.07
34023;BMP280;20673;48.980;8.138;2023-09-07T03:31:02;100293.67;;;14.02
34023;BMP280;20673;48.980;8.138;2023-09-07T03:33:28;100301.35;;;14.02
34023;BMP280;20673;48.980;8.138;2023-09-07T03:35:54;100298.12;;;13.99
34023;BMP280;20673;48.980;8.138;2023-09-07T03:38:22;100292.90;;;13.97
34023;BMP280;20673;48.980;8.138;2023-09-07T03:40:48;100290.86;;;13.98
34023;BMP280;20673;48.980;8.138;2023-09-07T03:43:14;100287.75;;;13.94
34023;BMP280;20673;48.980;8.138;2023-09-07T03:45:40;100286.58;;;13.92
34023;BMP280;20673;48.980;8.138;2023-09-07T03:48:06;100288.38;;;13.94
34023;BMP280;20673;48.980;8.138;2023-09-07T03:50:34;100292.93;;;13.94
34023;BMP280;20673;48.980;8.138;2023-09-07T03:53:01;100287.68;;;14.00
34023;BMP280;20673;48.980;8.138;2023-09-07T03:55:27;100289.11;;;14.02
34023;BMP280;20673;48.980;8.138;2023-09-07T03:57:53;100291.37;;;14.02
34023;BMP280;20673;48.980;8.138;2023-09-07T04:00:19;100293.83;;;14.00
34023;BMP280;20673;48.980;8.138;2023-09-07T04:02:45;100292.70;;;14.02
34023;BMP280;20673;48.980;8.138;2023-09-07T04:05:12;100296.53;;;14.12
34023;BMP280;20673;48.980;8.138;2023-09-07T04:07:38;100296.36;;;14.15
34023;BMP280;20673;48.980;8.138;2023-09-07T04:10:07;100296.27;;;14.11
34023;BMP280;20673;48.980;8.138;2023-09-07T04:12:34;100292.36;;;14.16
34023;BMP280;20673;48.980;8.138;2023-09-07T04:15:03;100286.67;;;14.18
34023;BMP280;20673;48.980;8.138;2023-09-07T04:17:30;100291.34;;;14.11
34023;BMP280;20673;48.980;8.138;2023-09-07T04:19:56;100290.15;;;13.97
34023;BMP280;20673;48.980;8.138;2023-09-07T04:22:22;100290.28;;;13.98
34023;BMP280;20673;48.980;8.138;2023-09-07T04:24:48;100289.70;;;13.90
34023;BMP280;20673;48.980;8.138;2023-09-07T04:27:15;100287.31;;;13.82
34023;BMP280;20673;48.980;8.138;2023-09-07T04:29:41;100286.22;;;13.78
34023;BMP280;20673;48.980;8.138;2023-09-07T04:32:07;100285.59;;;13.80
34023;BMP280;20673;48.980;8.138;2023-09-07T04:34:33;100283.53;;;13.76
34023;BMP280;20673;48.980;8.138;2023-09-07T04:36:59;100283.74;;;13.74
34023;BMP280;20673;48.980;8.138;2023-09-07T04:39:25;100284.45;;;13.74
34023;BMP280;20673;48.980;8.138;2023-09-07T04:41:51;100281.51;;;13.71
34023;BMP280;20673;48.980;8.138;2023-09-07T04:44:18;100286.53;;;13.73
34023;BMP280;20673;48.980;8.138;2023-09-07T04:46:44;100288.44;;;13.70
34023;BMP280;20673;48.980;8.138;2023-09-07T04:49:10;100288.77;;;13.70
34023;BMP280;20673;48.980;8.138;2023-09-07T04:51:37;100291.07;;;13.68
34023;BMP280;20673;48.980;8.138;2023-09-07T04:54:03;100290.06;;;13.68
34023;BMP280;20673;48.980;8.138;2023-09-07T04:56:29;100288.11;;;13.68
34023;BMP280;20673;48.980;8.138;2023-09-07T04:58:55;100290.94;;;13.68
34023;BMP280;20673;48.980;8.138;2023-09-07T05:01:21;100290.86;;;13.71
34023;BMP280;20673;48.980;8.138;2023-09-07T05:03:47;100294.17;;;13.73
34023;BMP280;20673;48.980;8.138;2023-09-07T05:06:13;100295.12;;;13.72
34023;BMP280;20673;48.980;8.138;2023-09-07T05:08:40;100297.65;;;13.76
34023;BMP280;20673;48.980;8.138;2023-09-07T05:11:06;100296.61;;;13.79
34023;BMP280;20673;48.980;8.138;2023-09-07T05:13:32;100299.43;;;13.84
34023;BMP280;20673;48.980;8.138;2023-09-07T05:16:00;100293.84;;;13.87
34023;BMP280;20673;48.980;8.138;2023-09-07T05:18:27;100297.15;;;13.89
34023;BMP280;20673;48.980;8.138;2023-09-07T05:20:53;100301.58;;;13.92
34023;BMP280;20673;48.980;8.138;2023-09-07T05:23:21;100309.86;;;14.00
34023;BMP280;20673;48.980;8.138;2023-09-07T05:25:50;100311.17;;;14.05
34023;BMP280;20673;48.980;8.138;2023-09-07T05:28:19;100313.61;;;14.10
34023;BMP280;20673;48.980;8.138;2023-09-07T05:30:46;100314.75;;;14.14
34023;BMP280;20673;48.980;8.138;2023-09-07T05:33:16;100312.97;;;14.22
34023;BMP280;20673;48.980;8.138;2023-09-07T05:35:42;100323.84;;;14.29
34023;BMP280;20673;48.980;8.138;2023-09-07T05:38:09;100318.33;;;14.35
34023;BMP280;20673;48.980;8.138;2023-09-07T05:40:41;100323.28;;;14.37
34023;BMP280;20673;48.980;8.138;2023-09-07T05:43:07;100320.14;;;14.41
34023;BMP280;20673;48.980;8.138;2023-09-07T05:45:37;100328.93;;;14.46
34023;BMP280;20673;48.980;8.138;2023-09-07T05:48:05;100334.70;;;14.51
34023;BMP280;20673;48.980;8.138;2023-09-07T05:50:36;100335.62;;;14.57
34023;BMP280;20673;48.980;8.138;2023-09-07T05:53:03;100336.97;;;14.65
34023;BMP280;20673;48.980;8.138;2023-09-07T05:55:29;100337.42;;;14.74
34023;BMP280;20673;48.980;8.138;2023-09-07T05:57:56;100335.42;;;14.81
34023;BMP280;20673;48.980;8.138;2023-09-07T06:00:23;100338.84;;;14.89
34023;BMP280;20673;48.980;8.138;2023-09-07T06:02:50;100343.18;;;15.01
34023;BMP280;20673;48.980;8.138;2023-09-07T06:05:17;100344.25;;;15.13
34023;BMP280;20673;48.980;8.138;2023-09-07T06:07:44;100343.68;;;15.25
34023;BMP280;20673;48.980;8.138;2023-09-07T06:10:10;100341.57;;;15.38
34023;BMP280;20673;48.980;8.138;2023-09-07T06:12:37;100349.35;;;15.56
34023;BMP280;20673;48.980;8.138;2023-09-07T06:15:04;100346.51;;;15.67
34023;BMP280;20673;48.980;8.138;2023-09-07T06:17:30;100355.16;;;15.80
34023;BMP280;20673;48.980;8.138;2023-09-07T06:19:56;100350.70;;;15.96
34023;BMP280;20673;48.980;8.138;2023-09-07T06:22:22;100343.53;;;16.11
34023;BMP280;20673;48.980;8.138;2023-09-07T06:24:49;100344.03;;;16.28
34023;BMP280;20673;48.980;8.138;2023-09-07T06:27:15;100343.64;;;16.46
34023;BMP280;20673;48.980;8.138;2023-09-07T06:29:41;100339.58;;;16.63
34023;BMP280;20673;48.980;8.138;2023-09-07T06:32:07;100336.42;;;16.80
34023;BMP280;20673;48.980;8.138;2023-09-07T06:34:33;100337.34;;;16.95
34023;BMP280;20673;48.980;8.138;2023-09-07T06:36:59;100339.97;;;17.10
34023;BMP280;20673;48.980;8.138;2023-09-07T06:39:25;100347.23;;;17.26
34023;BMP280;20673;48.980;8.138;2023-09-07T06:41:51;100347.45;;;17.41
34023;BMP280;20673;48.980;8.138;2023-09-07T06:44:17;100348.62;;;17.57
34023;BMP280;20673;48.980;8.138;2023-09-07T06:46:44;100351.69;;;17.74
34023;BMP280;20673;48.980;8.138;2023-09-07T06:49:10;100355.86;;;17.88
34023;BMP280;20673;48.980;8.138;2023-09-07T06:51:36;100353.85;;;18.00
34023;BMP280;20673;48.980;8.138;2023-09-07T06:54:02;100349.09;;;18.12
34023;BMP280;20673;48.980;8.138;2023-09-07T06:56:29;100353.84;;;18.25
34023;BMP280;20673;48.980;8.138;2023-09-07T06:58:57;100363.28;;;18.42
34023;BMP280;20673;48.980;8.138;2023-09-07T07:01:23;100360.39;;;18.54
34023;BMP280;20673;48.980;8.138;2023-09-07T07:03:49;100359.68;;;18.67
34023;BMP280;20673;48.980;8.138;2023-09-07T07:06:15;100360.58;;;18.77
34023;BMP280;20673;48.980;8.138;2023-09-07T07:08:41;100353.97;;;18.92
34023;BMP280;20673;48.980;8.138;2023-09-07T07:11:07;100351.33;;;19.06
34023;BMP280;20673;48.980;8.138;2023-09-07T07:13:34;100355.36;;;19.18
34023;BMP280;20673;48.980;8.138;2023-09-07T07:16:00;100349.95;;;19.35
34023;BMP280;20673;48.980;8.138;2023-09-07T07:18:26;100349.90;;;19.53
34023;BMP280;20673;48.980;8.138;2023-09-07T07:20:52;100347.58;;;19.64
34023;BMP280;20673;48.980;8.138;2023-09-07T07:23:18;100351.70;;;19.81
34023;BMP280;20673;48.980;8.138;2023-09-07T07:25:44;100359.03;;;19.95
34023;BMP280;20673;48.980;8.138;2023-09-07T07:28:10;100361.15;;;20.04
34023;BMP280;20673;48.980;8.138;2023-09-07T07:30:39;100360.44;;;20.15
34023;BMP280;20673;48.980;8.138;2023-09-07T07:33:09;100362.18;;;20.25
34023;BMP280;20673;48.980;8.138;2023-09-07T07:35:36;100356.98;;;20.40
34023;BMP280;20673;48.980;8.138;2023-09-07T07:38:03;100350.89;;;20.53
34023;BMP280;20673;48.980;8.138;2023-09-07T07:40:31;100353.87;;;20.60
34023;BMP280;20673;48.980;8.138;2023-09-07T07:42:57;100360.41;;;20.73
34023;BMP280;20673;48.980;8.138;2023-09-07T07:45:23;100355.61;;;20.91
34023;BMP280;20673;48.980;8.138;2023-09-07T07:47:50;100356.01;;;21.03
34023;BMP280;20673;48.980;8.138;2023-09-07T07:50:16;100357.93;;;21.19
34023;BMP280;20673;48.980;8.138;2023-09-07T07:52:43;100354.01;;;21.42
34023;BMP280;20673;48.980;8.138;2023-09-07T07:55:10;100351.68;;;21.54
34023;BMP280;20673;48.980;8.138;2023-09-07T07:57:37;100357.78;;;21.74
34023;BMP280;20673;48.980;8.138;2023-09-07T08:00:04;100352.62;;;21.81
34023;BMP280;20673;48.980;8.138;2023-09-07T08:02:31;100354.91;;;22.02
34023;BMP280;20673;48.980;8.138;2023-09-07T08:04:58;100356.36;;;22.13
34023;BMP280;20673;48.980;8.138;2023-09-07T08:07:25;100363.46;;;22.28
34023;BMP280;20673;48.980;8.138;2023-09-07T08:09:52;100359.67;;;22.60
34023;BMP280;20673;48.980;8.138;2023-09-07T08:12:18;100363.53;;;22.69
34023;BMP280;20673;48.980;8.138;2023-09-07T08:14:44;100369.26;;;22.86
34023;BMP280;20673;48.980;8.138;2023-09-07T08:17:10;100366.20;;;23.12
34023;BMP280;20673;48.980;8.138;2023-09-07T08:19:36;100362.27;;;23.21
34023;BMP280;20673;48.980;8.138;2023-09-07T08:22:05;100358.12;;;23.36
34023;BMP280;20673;48.980;8.138;2023-09-07T08:24:32;100361.51;;;23.44
34023;BMP280;20673;48.980;8.138;2023-09-07T08:26:59;100358.64;;;23.67
34023;BMP280;20673;48.980;8.138;2023-09-07T08:29:27;100358.59;;;23.77
34023;BMP280;20673;48.980;8.138;2023-09-07T08:31:55;100355.85;;;23.93
34023;BMP280;20673;48.980;8.138;2023-09-07T08:34:21;100362.41;;;24.10
34023;BMP280;20673;48.980;8.138;2023-09-07T08:36:49;100364.65;;;24.07
34023;BMP280;20673;48.980;8.138;2023-09-07T08:39:16;100366.28;;;24.29
34023;BMP280;20673;48.980;8.138;2023-09-07T08:41:44;100362.42;;;24.29
34023;BMP280;20673;48.980;8.138;2023-09-07T08:44:12;100364.43;;;24.43
34023;BMP280;20673;48.980;8.138;2023-09-07T08:46:41;100365.67;;;24.59
34023;BMP280;20673;48.980;8.138;2023-09-07T08:49:08;100361.37;;;24.91
34023;BMP280;20673;48.980;8.138;2023-09-07T08:51:35;100363.20;;;25.03
34023;BMP280;20673;48.980;8.138;2023-09-07T08:54:07;100354.64;;;25.36
34023;BMP280;20673;48.980;8.138;2023-09-07T08:56:33;100359.22;;;25.45
34023;BMP280;20673;48.980;8.138;2023-09-07T08:59:00;100358.71;;;25.84
34023;BMP280;20673;48.980;8.138;2023-09-07T09:01:26;100359.58;;;26.02
34023;BMP280;20673;48.980;8.138;2023-09-07T09:03:54;100357.23;;;26.33
34023;BMP280;20673;48.980;8.138;2023-09-07T09:06:21;100358.47;;;26.42
34023;BMP280;20673;48.980;8.138;2023-09-07T09:08:54;100365.37;;;26.69
34023;BMP280;20673;48.980;8.138;2023-09-07T09:11:22;100364.87;;;26.87
34023;BMP280;20673;48.980;8.138;2023-09-07T09:13:51;100372.55;;;27.13
34023;BMP280;20673;48.980;8.138;2023-09-07T09:16:18;100376.49;;;27.03
34023;BMP280;20673;48.980;8.138;2023-09-07T09:18:56;100376.87;;;27.21
34023;BMP280;20673;48.980;8.138;2023-09-07T09:21:26;100373.28;;;27.75
34023;BMP280;20673;48.980;8.138;2023-09-07T09:23:57;100373.17;;;27.71
34023;BMP280;20673;48.980;8.138;2023-09-07T09:26:22;100369.08;;;27.81
34023;BMP280;20673;48.980;8.138;2023-09-07T09:28:49;100364.18;;;28.33
34023;BMP280;20673;48.980;8.138;2023-09-07T09:31:18;100364.67;;;28.17
34023;BMP280;20673;48.980;8.138;2023-09-07T09:33:49;100366.02;;;28.34
34023;BMP280;20673;48.980;8.138;2023-09-07T09:36:17;100366.79;;;28.47
34023;BMP280;20673;48.980;8.138;2023-09-07T09:38:50;100366.58;;;28.51
34023;BMP280;20673;48.980;8.138;2023-09-07T09:41:20;100359.39;;;28.68
34023;BMP280;20673;48.980;8.138;2023-09-07T09:43:50;100357.66;;;28.95
34023;BMP280;20673;48.980;8.138;2023-09-07T09:46:21;100356.87;;;29.31
34023;BMP280;20673;48.980;8.138;2023-09-07T09:48:49;100355.74;;;29.41
34023;BMP280;20673;48.980;8.138;2023-09-07T09:51:15;100350.50;;;29.86
34023;BMP280;20673;48.980;8.138;2023-09-07T09:53:42;100355.78;;;30.12
34023;BMP280;20673;48.980;8.138;2023-09-07T09:56:08;100349.87;;;30.57
34023;BMP280;20673;48.980;8.138;2023-09-07T09:58:35;100351.15;;;30.56
34023;BMP280;20673;48.980;8.138;2023-09-07T10:01:02;100353.78;;;30.95
34023;BMP280;20673;48.980;8.138;2023-09-07T10:03:34;100346.40;;;31.60
34023;BMP280;20673;48.980;8.138;2023-09-07T10:06:10;100342.09;;;32.17
34023;BMP280;20673;48.980;8.138;2023-09-07T10:08:36;100339.88;;;32.73
34023;BMP280;20673;48.980;8.138;2023-09-07T10:11:08;100344.09;;;33.33
34023;BMP280;20673;48.980;8.138;2023-09-07T10:13:38;100346.71;;;33.21
34023;BMP280;20673;48.980;8.138;2023-09-07T10:16:06;100337.30;;;33.59
34023;BMP280;20673;48.980;8.138;2023-09-07T10:18:38;100342.39;;;33.53
34023;BMP280;20673;48.980;8.138;2023-09-07T10:21:05;100343.86;;;33.16
34023;BMP280;20673;48.980;8.138;2023-09-07T10:23:41;100338.33;;;33.54
34023;BMP280;20673;48.980;8.138;2023-09-07T10:26:18;100332.14;;;33.85
34023;BMP280;20673;48.980;8.138;2023-09-07T10:28:46;100328.62;;;34.23
34023;BMP280;20673;48.980;8.138;2023-09-07T10:31:16;100323.61;;;33.92
34023;BMP280;20673;48.980;8.138;2023-09-07T10:33:43;100331.90;;;33.71
34023;BMP280;20673;48.980;8.138;2023-09-07T10:36:23;100322.25;;;34.17
34023;BMP280;20673;48.980;8.138;2023-09-07T10:38:49;100320.40;;;33.86
34023;BMP280;20673;48.980;8.138;2023-09-07T10:41:17;100315.26;;;34.01
34023;BMP280;20673;48.980;8.138;2023-09-07T10:43:53;100319.65;;;33.74
34023;BMP280;20673;48.980;8.138;2023-09-07T10:46:21;100310.62;;;33.83
34023;BMP280;20673;48.980;8.138;2023-09-07T10:48:52;100309.87;;;34.28
34023;BMP280;20673;48.980;8.138;2023-09-07T10:51:19;100308.43;;;34.37
34023;BMP280;20673;48.980;8.138;2023-09-07T10:53:46;100312.73;;;34.17
34023;BMP280;20673;48.980;8.138;2023-09-07T10:56:12;100313.20;;;34.30
34023;BMP280;20673;48.980;8.138;2023-09-07T10:58:40;100305.53;;;34.04
34023;BMP280;20673;48.980;8.138;2023-09-07T11:01:09;100304.54;;;34.32
34023;BMP280;20673;48.980;8.138;2023-09-07T11:03:37;100298.79;;;34.35
34023;BMP280;20673;48.980;8.138;2023-09-07T11:06:14;100294.82;;;34.35
34023;BMP280;20673;48.980;8.138;2023-09-07T11:08:42;100292.64;;;34.73
34023;BMP280;20673;48.980;8.138;2023-09-07T11:11:09;100296.11;;;34.87
34023;BMP280;20673;48.980;8.138;2023-09-07T11:13:36;100285.06;;;34.86
34023;BMP280;20673;48.980;8.138;2023-09-07T11:16:02;100287.01;;;34.25
34023;BMP280;20673;48.980;8.138;2023-09-07T11:18:30;100280.76;;;34.37
34023;BMP280;20673;48.980;8.138;2023-09-07T11:20:56;100278.04;;;33.92
34023;BMP280;20673;48.980;8.138;2023-09-07T11:23:22;100276.54;;;33.95
34023;BMP280;20673;48.980;8.138;2023-09-07T11:25:51;100272.21;;;34.57
34023;BMP280;20673;48.980;8.138;2023-09-07T11:28:18;100270.65;;;34.34
34023;BMP280;20673;48.980;8.138;2023-09-07T11:30:55;100264.01;;;34.37
34023;BMP280;20673;48.980;8.138;2023-09-07T11:33:24;100267.92;;;34.50
34023;BMP280;20673;48.980;8.138;2023-09-07T11:35:52;100270.48;;;34.21
34023;BMP280;20673;48.980;8.138;2023-09-07T11:38:20;100272.98;;;34.62
34023;BMP280;20673;48.980;8.138;2023-09-07T11:40:46;100267.71;;;34.38
34023;BMP280;20673;48.980;8.138;2023-09-07T11:43:17;100267.45;;;34.54
34023;BMP280;20673;48.980;8.138;2023-09-07T11:45:46;100269.14;;;34.73
34023;BMP280;20673;48.980;8.138;2023-09-07T11:48:12;100271.39;;;34.44
34023;BMP280;20673;48.980;8.138;2023-09-07T11:50:39;100266.40;;;34.36
34023;BMP280;20673;48.980;8.138;2023-09-07T11:53:07;100263.13;;;34.54
34023;BMP280;20673;48.980;8.138;2023-09-07T11:55:34;100259.93;;;34.58
34023;BMP280;20673;48.980;8.138;2023-09-07T11:58:04;100260.47;;;34.94
34023;BMP280;20673;48.980;8.138;2023-09-07T12:00:33;100261.83;;;34.81
34023;BMP280;20673;48.980;8.138;2023-09-07T12:02:59;100256.84;;;34.34
34023;BMP280;20673;48.980;8.138;2023-09-07T12:05:25;100255.93;;;34.38
34023;BMP280;20673;48.980;8.138;2023-09-07T12:07:52;100257.17;;;34.26
34023;BMP280;20673;48.980;8.138;2023-09-07T12:10:18;100254.59;;;34.23
34023;BMP280;20673;48.980;8.138;2023-09-07T12:12:44;100253.26;;;34.38
34023;BMP280;20673;48.980;8.138;2023-09-07T12:15:11;100246.00;;;34.91
34023;BMP280;20673;48.980;8.138;2023-09-07T12:17:38;100249.78;;;34.61
34023;BMP280;20673;48.980;8.138;2023-09-07T12:20:06;100244.33;;;34.63
34023;BMP280;20673;48.980;8.138;2023-09-07T12:22:36;100246.43;;;35.02
34023;BMP280;20673;48.980;8.138;2023-09-07T12:25:06;100244.83;;;34.65
34023;BMP280;20673;48.980;8.138;2023-09-07T12:27:34;100238.83;;;34.98
34023;BMP280;20673;48.980;8.138;2023-09-07T12:30:01;100233.90;;;34.95
34023;BMP280;20673;48.980;8.138;2023-09-07T12:32:28;100234.61;;;34.68
34023;BMP280;20673;48.980;8.138;2023-09-07T12:34:54;100230.86;;;34.28
34023;BMP280;20673;48.980;8.138;2023-09-07T12:37:20;100228.18;;;34.55
34023;BMP280;20673;48.980;8.138;2023-09-07T12:39:49;100226.45;;;34.49
34023;BMP280;20673;48.980;8.138;2023-09-07T12:42:16;100227.69;;;34.50
34023;BMP280;20673;48.980;8.138;2023-09-07T12:44:42;100225.89;;;34.74
34023;BMP280;20673;48.980;8.138;2023-09-07T12:47:08;100229.64;;;34.61
34023;BMP280;20673;48.980;8.138;2023-09-07T12:49:36;100220.06;;;34.37
34023;BMP280;20673;48.980;8.138;2023-09-07T12:52:03;100223.34;;;34.71
34023;BMP280;20673;48.980;8.138;2023-09-07T12:54:31;100220.72;;;34.70
34023;BMP280;20673;48.980;8.138;2023-09-07T12:56:57;100220.75;;;34.35
34023;BMP280;20673;48.980;8.138;2023-09-07T12:59:23;100220.68;;;34.40
34023;BMP280;20673;48.980;8.138;2023-09-07T13:01:49;100219.73;;;34.40
34023;BMP280;20673;48.980;8.138;2023-09-07T13:04:16;100214.42;;;34.43
34023;BMP280;20673;48.980;8.138;2023-09-07T13:06:42;100212.25;;;34.68
34023;BMP280;20673;48.980;8.138;2023-09-07T13:09:08;100212.15;;;34.75
34023;BMP280;20673;48.980;8.138;2023-09-07T13:11:36;100211.86;;;34.54
34023;BMP280;20673;48.980;8.138;2023-09-07T13:14:03;100206.86;;;35.16
34023;BMP280;20673;48.980;8.138;2023-09-07T13:16:29;100204.08;;;34.67
34023;BMP280;20673;48.980;8.138;2023-09-07T13:18:55;100204.50;;;35.11
34023;BMP280;20673;48.980;8.138;2023-09-07T13:21:22;100201.42;;;35.00
34023;BMP280;20673;48.980;8.138;2023-09-07T13:23:48;100204.92;;;35.23
34023;BMP280;20673;48.980;8.138;2023-09-07T13:26:14;100196.25;;;35.31
34023;BMP280;20673;48.980;8.138;2023-09-07T13:28:40;100199.59;;;35.56
34023;BMP280;20673;48.980;8.138;2023-09-07T13:31:07;100194.47;;;35.30
34023;BMP280;20673;48.980;8.138;2023-09-07T13:33:36;100194.64;;;35.59
34023;BMP280;20673;48.980;8.138;2023-09-07T13:36:02;100193.90;;;35.15
34023;BMP280;20673;48.980;8.138;2023-09-07T13:38:28;100195.11;;;35.15
34023;BMP280;20673;48.980;8.138;2023-09-07T13:40:54;100190.09;;;35.43
34023;BMP280;20673;48.980;8.138;2023-09-07T13:43:20;100183.67;;;35.11
34023;BMP280;20673;48.980;8.138;2023-09-07T13:45:47;100182.18;;;35.52
34023;BMP280;20673;48.980;8.138;2023-09-07T13:48:13;100187.01;;;35.12
34023;BMP280;20673;48.980;8.138;2023-09-07T13:50:39;100181.17;;;35.09
34023;BMP280;20673;48.980;8.138;2023-09-07T13:53:06;100182.43;;;34.80
34023;BMP280;20673;48.980;8.138;2023-09-07T13:55:32;100176.12;;;34.91